sensor_id;sensor_type;location;lat;lon;timestamp;pressure;altitude;pressure_sealevel;temperature;humidity
40650;BME280;26342;42.826;23.992;2022-07-06T00:01:29;95323.91;;;22.56;80.96
40650;BME280;26342;42.826;23.992;2022-07-06T00:03:55;95320.03;;;22.45;80.62
40650;BME280;26342;42.826;23.992;2022-07-06T00:06:21;95313.19;;;22.39;78.79
40650;BME280;26342;42.826;23.992;2022-07-06T00:08:46;95305.16;;;22.42;77.89
40650;BME280;26342;42.826;23.992;2022-07-06T00:11:12;95294.97;;;22.39;79.05
40650;BME280;26342;42.826;23.992;2022-07-06T00:13:37;95293.72;;;22.37;79.58
40650;BME280;26342;42.826;23.992;2022-07-06T00:16:03;95287.53;;;22.27;78.40
40650;BME280;26342;42.826;23.992;2022-07-06T00:18:28;95277.94;;;22.30;76.71
40650;BME280;26342;42.826;23.992;2022-07-06T00:20:54;95277.94;;;22.30;77.61
40650;BME280;26342;42.826;23.992;2022-07-06T00:23:19;95264.34;;;22.30;76.39
40650;BME280;26342;42.826;23.992;2022-07-06T00:25:45;95262.50;;;22.22;76.64
40650;BME280;26342;42.826;23.992;2022-07-06T00:28:10;95251.16;;;22.20;75.93
40650;BME280;26342;42.826;23.992;2022-07-06T00:30:36;95256.59;;;22.20;76.61
40650;BME280;26342;42.826;23.992;2022-07-06T00:33:01;95245.75;;;22.20;75.35
40650;BME280;26342;42.826;23.992;2022-07-06T00:35:27;95234.53;;;22.21;75.91
40650;BME280;26342;42.826;23.992;2022-07-06T00:37:52;95234.97;;;22.23;77.64
40650;BME280;26342;42.826;23.992;2022-07-06T00:40:18;95230.34;;;22.24;77.84
40650;BME280;26342;42.826;23.992;2022-07-06T00:42:46;95227.50;;;22.20;77.91
40650;BME280;26342;42.826;23.992;2022-07-06T00:45:13;95209.72;;;22.23;78.85
40650;BME280;26342;42.826;23.992;2022-07-06T00:47:39;95202.47;;;22.27;79.51
40650;BME280;26342;42.826;23.992;2022-07-06T00:50:06;95199.41;;;22.16;79.24
40650;BME280;26342;42.826;23.992;2022-07-06T00:55:14;95190.09;;;22.17;79.84
40650;BME280;26342;42.826;23.992;2022-07-06T00:57:41;95175.94;;;22.12;78.08
40650;BME280;26342;42.826;23.992;2022-07-06T01:00:09;95168.59;;;22.12;77.55
40650;BME280;26342;42.826;23.992;2022-07-06T01:02:37;95150.56;;;22.08;77.54
40650;BME280;26342;42.826;23.992;2022-07-06T01:05:07;95151.63;;;21.94;79.19
40650;BME280;26342;42.826;23.992;2022-07-06T01:07:33;95132.44;;;21.79;80.94
40650;BME280;26342;42.826;23.992;2022-07-06T01:09:58;95135.47;;;21.77;81.01
40650;BME280;26342;42.826;23.992;2022-07-06T01:12:24;95134.88;;;21.71;81.17
40650;BME280;26342;42.826;23.992;2022-07-06T01:14:50;95127.88;;;21.70;81.23
40650;BME280;26342;42.826;23.992;2022-07-06T01:17:17;95140.00;;;21.73;81.18
40650;BME280;26342;42.826;23.992;2022-07-06T01:19:42;95154.56;;;21.68;80.38
40650;BME280;26342;42.826;23.992;2022-07-06T01:22:09;95166.69;;;21.50;80.38
40650;BME280;26342;42.826;23.992;2022-07-06T01:24:35;95170.53;;;21.28;80.58
40650;BME280;26342;42.826;23.992;2022-07-06T01:27:00;95173.69;;;21.30;81.33
40650;BME280;26342;42.826;23.992;2022-07-06T01:29:26;95171.59;;;21.36;81.00
40650;BME280;26342;42.826;23.992;2022-07-06T01:31:52;95168.41;;;21.34;80.26
40650;BME280;26342;42.826;23.992;2022-07-06T01:34:17;95178.31;;;21.30;80.50
40650;BME280;26342;42.826;23.992;2022-07-06T01:36:43;95170.81;;;21.27;80.67
40650;BME280;26342;42.826;23.992;2022-07-06T01:39:09;95170.28;;;21.42;81.18
40650;BME280;26342;42.826;23.992;2022-07-06T01:41:35;95168.47;;;21.46;80.76
40650;BME280;26342;42.826;23.992;2022-07-06T01:44:02;95175.97;;;21.49;81.45
40650;BME280;26342;42.826;23.992;2022-07-06T01:46:27;95173.84;;;21.55;81.58
40650;BME280;26342;42.826;23.992;2022-07-06T01:48:52;95187.41;;;21.55;81.19
40650;BME280;26342;42.826;23.992;2022-07-06T01:51:18;95187.91;;;21.57;82.08
40650;BME280;26342;42.826;23.992;2022-07-06T01:53:43;95193.78;;;21.59;81.80
40650;BME280;26342;42.826;23.992;2022-07-06T01:56:10;95194.25;;;21.61;82.63
40650;BME280;26342;42.826;23.992;2022-07-06T01:58:36;95189.94;;;21.60;82.52
40650;BME280;26342;42.826;23.992;2022-07-06T02:01:19;95196.50;;;21.59;82.13
40650;BME280;26342;42.826;23.992;2022-07-06T02:03:46;95197.63;;;21.58;82.74
40650;BME280;26342;42.826;23.992;2022-07-06T02:06:12;95197.28;;;21.59;82.95
40650;BME280;26342;42.826;23.992;2022-07-06T02:08:38;95212.28;;;21.65;81.62
40650;BME280;26342;42.826;23.992;2022-07-06T02:11:05;95219.94;;;21.63;82.00
40650;BME280;26342;42.826;23.992;2022-07-06T02:13:31;95210.88;;;21.59;82.09
40650;BME280;26342;42.826;23.992;2022-07-06T02:15:56;95221.28;;;21.57;82.29
40650;BME280;26342;42.826;23.992;2022-07-06T02:18:22;95227.06;;;21.47;82.67
40650;BME280;26342;42.826;23.992;2022-07-06T02:20:47;95233.78;;;21.50;82.62
40650;BME280;26342;42.826;23.992;2022-07-06T02:23:13;95234.75;;;21.45;82.82
40650;BME280;26342;42.826;23.992;2022-07-06T02:25:38;95235.88;;;21.44;82.81
40650;BME280;26342;42.826;23.992;2022-07-06T02:28:04;95240.97;;;21.45;83.16
40650;BME280;26342;42.826;23.992;2022-07-06T02:30:29;95241.91;;;21.50;83.70
40650;BME280;26342;42.826;23.992;2022-07-06T02:32:55;95250.06;;;21.50;83.72
40650;BME280;26342;42.826;23.992;2022-07-06T02:35:20;95245.94;;;21.43;83.56
40650;BME280;26342;42.826;23.992;2022-07-06T02:37:46;95251.38;;;21.43;84.12
40650;BME280;26342;42.826;23.992;2022-07-06T02:40:11;95259.84;;;21.42;84.54
40650;BME280;26342;42.826;23.992;2022-07-06T02:42:37;95272.63;;;21.41;84.50
40650;BME280;26342;42.826;23.992;2022-07-06T02:45:03;95272.94;;;21.40;84.99
40650;BME280;26342;42.826;23.992;2022-07-06T02:47:28;95275.63;;;21.10;86.75
40650;BME280;26342;42.826;23.992;2022-07-06T02:49:54;95282.50;;;20.99;87.50
40650;BME280;26342;42.826;23.992;2022-07-06T02:52:20;95275.03;;;20.96;87.53
40650;BME280;26342;42.826;23.992;2022-07-06T02:54:45;95272.28;;;21.05;88.54
40650;BME280;26342;42.826;23.992;2022-07-06T02:57:11;95282.63;;;21.11;88.66
40650;BME280;26342;42.826;23.992;2022-07-06T02:59:36;95290.44;;;21.13;89.24
40650;BME280;26342;42.826;23.992;2022-07-06T03:02:05;95293.03;;;21.01;91.00
40650;BME280;26342;42.826;23.992;2022-07-06T03:04:30;95288.28;;;20.89;92.24
40650;BME280;26342;42.826;23.992;2022-07-06T03:06:56;95294.56;;;20.72;93.91
40650;BME280;26342;42.826;23.992;2022-07-06T03:09:21;95291.69;;;20.69;94.52
40650;BME280;26342;42.826;23.992;2022-07-06T03:11:47;95298.41;;;20.71;94.69
40650;BME280;26342;42.826;23.992;2022-07-06T03:14:12;95299.81;;;20.69;95.43
40650;BME280;26342;42.826;23.992;2022-07-06T03:16:38;95300.47;;;20.66;95.41
40650;BME280;26342;42.826;23.992;2022-07-06T03:19:03;95301.75;;;20.68;95.45
40650;BME280;26342;42.826;23.992;2022-07-06T03:21:28;95307.47;;;20.75;95.72
40650;BME280;26342;42.826;23.992;2022-07-06T03:23:54;95307.66;;;20.70;96.35
40650;BME280;26342;42.826;23.992;2022-07-06T03:26:19;95317.06;;;20.73;96.43
40650;BME280;26342;42.826;23.992;2022-07-06T03:28:45;95313.69;;;20.76;97.21
40650;BME280;26342;42.826;23.992;2022-07-06T03:31:10;95325.63;;;20.83;96.94
40650;BME280;26342;42.826;23.992;2022-07-06T03:33:35;95319.75;;;20.81;96.96
40650;BME280;26342;42.826;23.992;2022-07-06T03:36:01;95321.34;;;20.74;97.54
40650;BME280;26342;42.826;23.992;2022-07-06T03:38:26;95327.59;;;20.66;98.66
40650;BME280;26342;42.826;23.992;2022-07-06T03:40:52;95327.91;;;20.73;97.72
40650;BME280;26342;42.826;23.992;2022-07-06T03:43:17;95330.59;;;20.73;98.39
40650;BME280;26342;42.826;23.992;2022-07-06T03:45:43;95335.88;;;20.69;99.01
40650;BME280;26342;42.826;23.992;2022-07-06T03:48:08;95332.22;;;20.65;99.15
40650;BME280;26342;42.826;23.992;2022-07-06T03:50:34;95327.44;;;20.62;98.72
40650;BME280;26342;42.826;23.992;2022-07-06T03:52:59;95332.84;;;20.53;99.56
40650;BME280;26342;42.826;23.992;2022-07-06T03:55:25;95333.97;;;20.61;98.27
40650;BME280;26342;42.826;23.992;2022-07-06T03:57:50;95338.44;;;20.57;98.39
40650;BME280;26342;42.826;23.992;2022-07-06T04:00:16;95337.00;;;20.51;98.91
40650;BME280;26342;42.826;23.992;2022-07-06T04:02:41;95327.63;;;20.48;98.83
40650;BME280;26342;42.826;23.992;2022-07-06T04:05:07;95327.94;;;20.47;98.96
40650;BME280;26342;42.826;23.992;2022-07-06T04:07:33;95327.09;;;20.38;99.72
40650;BME280;26342;42.826;23.992;2022-07-06T04:09:58;95317.84;;;20.30;100.00
40650;BME280;26342;42.826;23.992;2022-07-06T04:12:23;95326.63;;;20.27;100.00
40650;BME280;26342;42.826;23.992;2022-07-06T04:14:49;95325.19;;;20.12;100.00
40650;BME280;26342;42.826;23.992;2022-07-06T04:17:14;95336.53;;;20.23;100.00
40650;BME280;26342;42.826;23.992;2022-07-06T04:19:58;95327.75;;;20.26;100.00
40650;BME280;26342;42.826;23.992;2022-07-06T04:22:24;95327.28;;;20.32;100.00
40650;BME280;26342;42.826;23.992;2022-07-06T04:24:49;95317.38;;;20.19;100.00
40650;BME280;26342;42.826;23.992;2022-07-06T04:27:14;95324.25;;;20.17;100.00
40650;BME280;26342;42.826;23.992;2022-07-06T04:29:40;95328.88;;;20.16;100.00
40650;BME280;26342;42.826;23.992;2022-07-06T04:32:06;95331.06;;;20.14;100.00
40650;BME280;26342;42.826;23.992;2022-07-06T04:34:31;95335.22;;;20.20;100.00
40650;BME280;26342;42.826;23.992;2022-07-06T04:36:57;95329.34;;;20.18;100.00
40650;BME280;26342;42.826;23.992;2022-07-06T04:39:22;95337.78;;;20.25;100.00
40650;BME280;26342;42.826;23.992;2022-07-06T04:41:47;95340.50;;;20.25;100.00
40650;BME280;26342;42.826;23.992;2022-07-06T04:44:13;95341.63;;;20.33;100.00
40650;BME280;26342;42.826;23.992;2022-07-06T04:46:38;95344.97;;;20.39;100.00
40650;BME280;26342;42.826;23.992;2022-07-06T04:49:03;95335.06;;;20.43;100.00
40650;BME280;26342;42.826;23.992;2022-07-06T04:51:29;95341.16;;;20.40;100.00
40650;BME280;26342;42.826;23.992;2022-07-06T04:53:54;95344.31;;;20.42;100.00
40650;BME280;26342;42.826;23.992;2022-07-06T04:56:19;95343.69;;;20.45;100.00
40650;BME280;26342;42.826;23.992;2022-07-06T04:58:45;95345.28;;;20.28;100.00
40650;BME280;26342;42.826;23.992;2022-07-06T05:01:10;95340.50;;;20.34;100.00
40650;BME280;26342;42.826;23.992;2022-07-06T05:03:36;95350.41;;;20.39;100.00
40650;BME280;26342;42.826;23.992;2022-07-06T05:06:05;95352.97;;;20.44;100.00
40650;BME280;26342;42.826;23.992;2022-07-06T05:08:32;95361.25;;;20.39;100.00
40650;BME280;26342;42.826;23.992;2022-07-06T05:10:58;95361.53;;;20.37;100.00
40650;BME280;26342;42.826;23.992;2022-07-06T05:13:24;95358.03;;;20.36;100.00
40650;BME280;26342;42.826;23.992;2022-07-06T05:15:49;95351.19;;;20.39;100.00
40650;BME280;26342;42.826;23.992;2022-07-06T05:18:15;95357.56;;;20.34;100.00
40650;BME280;26342;42.826;23.992;2022-07-06T05:20:40;95361.53;;;20.37;100.00
40650;BME280;26342;42.826;23.992;2022-07-06T05:23:06;95362.81;;;20.40;100.00
40650;BME280;26342;42.826;23.992;2022-07-06T05:25:31;95360.59;;;20.33;100.00
40650;BME280;26342;42.826;23.992;2022-07-06T05:27:58;95352.13;;;20.34;100.00
40650;BME280;26342;42.826;23.992;2022-07-06T05:30:24;95357.88;;;20.42;100.00
40650;BME280;26342;42.826;23.992;2022-07-06T05:32:50;95361.41;;;20.51;100.00
40650;BME280;26342;42.826;23.992;2022-07-06T05:35:15;95366.69;;;20.56;100.00
40650;BME280;26342;42.826;23.992;2022-07-06T05:37:41;95369.69;;;20.63;100.00
40650;BME280;26342;42.826;23.992;2022-07-06T05:40:07;95356.59;;;20.74;100.00
40650;BME280;26342;42.826;23.992;2022-07-06T05:42:33;95374.78;;;20.82;99.72
40650;BME280;26342;42.826;23.992;2022-07-06T05:44:58;95370.44;;;20.89;100.00
40650;BME280;26342;42.826;23.992;2022-07-06T05:47:23;95368.38;;;20.95;99.30
40650;BME280;26342;42.826;23.992;2022-07-06T05:50:07;95372.78;;;21.08;100.00
40650;BME280;26342;42.826;23.992;2022-07-06T05:52:43;95370.34;;;21.24;99.48
40650;BME280;26342;42.826;23.992;2022-07-06T05:55:11;95372.56;;;21.39;98.79
40650;BME280;26342;42.826;23.992;2022-07-06T05:57:36;95364.69;;;21.55;97.91
40650;BME280;26342;42.826;23.992;2022-07-06T06:00:04;95368.44;;;21.71;97.34
40650;BME280;26342;42.826;23.992;2022-07-06T06:02:40;95371.09;;;21.89;96.95
40650;BME280;26342;42.826;23.992;2022-07-06T06:05:07;95377.38;;;22.01;94.88
40650;BME280;26342;42.826;23.992;2022-07-06T06:07:35;95372.28;;;22.00;89.97
40650;BME280;26342;42.826;23.992;2022-07-06T06:10:03;95376.03;;;21.87;88.71
40650;BME280;26342;42.826;23.992;2022-07-06T06:12:28;95379.69;;;21.91;90.24
40650;BME280;26342;42.826;23.992;2022-07-06T06:14:54;95377.19;;;21.77;88.94
40650;BME280;26342;42.826;23.992;2022-07-06T06:17:19;95372.50;;;21.86;89.11
40650;BME280;26342;42.826;23.992;2022-07-06T06:19:44;95368.16;;;21.94;89.32
40650;BME280;26342;42.826;23.992;2022-07-06T06:22:10;95365.72;;;22.01;90.15
40650;BME280;26342;42.826;23.992;2022-07-06T06:24:35;95369.84;;;22.07;88.69
40650;BME280;26342;42.826;23.992;2022-07-06T06:27:01;95367.94;;;22.08;88.56
40650;BME280;26342;42.826;23.992;2022-07-06T06:29:26;95370.66;;;22.08;87.80
40650;BME280;26342;42.826;23.992;2022-07-06T06:31:51;95363.56;;;22.15;88.02
40650;BME280;26342;42.826;23.992;2022-07-06T06:34:17;95365.91;;;22.25;85.29
40650;BME280;26342;42.826;23.992;2022-07-06T06:36:42;95363.06;;;22.22;84.78
40650;BME280;26342;42.826;23.992;2022-07-06T06:39:08;95367.19;;;22.28;86.26
40650;BME280;26342;42.826;23.992;2022-07-06T06:41:33;95361.97;;;22.35;88.75
40650;BME280;26342;42.826;23.992;2022-07-06T06:43:58;95363.13;;;22.34;86.47
40650;BME280;26342;42.826;23.992;2022-07-06T06:46:24;95364.84;;;22.39;85.34
40650;BME280;26342;42.826;23.992;2022-07-06T06:48:49;95355.50;;;22.48;86.14
40650;BME280;26342;42.826;23.992;2022-07-06T06:51:14;95361.06;;;22.52;85.57
40650;BME280;26342;42.826;23.992;2022-07-06T06:53:40;95362.31;;;22.54;85.20
40650;BME280;26342;42.826;23.992;2022-07-06T06:56:06;95360.78;;;22.66;82.59
40650;BME280;26342;42.826;23.992;2022-07-06T06:58:31;95350.22;;;22.64;82.08
40650;BME280;26342;42.826;23.992;2022-07-06T07:00:57;95353.41;;;22.66;81.73
40650;BME280;26342;42.826;23.992;2022-07-06T07:03:22;95353.56;;;22.70;80.53
40650;BME280;26342;42.826;23.992;2022-07-06T07:05:47;95351.09;;;22.77;81.54
40650;BME280;26342;42.826;23.992;2022-07-06T07:08:14;95359.50;;;22.84;80.34
40650;BME280;26342;42.826;23.992;2022-07-06T07:10:39;95356.53;;;22.77;79.80
40650;BME280;26342;42.826;23.992;2022-07-06T07:13:04;95349.56;;;22.88;80.76
40650;BME280;26342;42.826;23.992;2022-07-06T07:15:30;95362.28;;;22.96;78.93
40650;BME280;26342;42.826;23.992;2022-07-06T07:17:55;95354.34;;;22.91;78.59
40650;BME280;26342;42.826;23.992;2022-07-06T07:20:21;95356.41;;;23.06;78.57
40650;BME280;26342;42.826;23.992;2022-07-06T07:22:47;95356.66;;;23.13;77.80
40650;BME280;26342;42.826;23.992;2022-07-06T07:25:12;95358.16;;;23.23;77.96
40650;BME280;26342;42.826;23.992;2022-07-06T07:27:38;95357.03;;;23.36;77.79
40650;BME280;26342;42.826;23.992;2022-07-06T07:30:04;95352.84;;;23.39;77.41
40650;BME280;26342;42.826;23.992;2022-07-06T07:32:29;95354.78;;;23.38;75.63
40650;BME280;26342;42.826;23.992;2022-07-06T07:34:55;95361.72;;;23.48;74.45
40650;BME280;26342;42.826;23.992;2022-07-06T07:37:20;95362.50;;;23.49;75.30
40650;BME280;26342;42.826;23.992;2022-07-06T07:39:45;95362.16;;;23.50;75.41
40650;BME280;26342;42.826;23.992;2022-07-06T07:42:11;95362.41;;;23.57;74.22
40650;BME280;26342;42.826;23.992;2022-07-06T07:44:36;95365.00;;;23.54;75.54
40650;BME280;26342;42.826;23.992;2022-07-06T07:47:04;95364.44;;;23.48;76.16
40650;BME280;26342;42.826;23.992;2022-07-06T07:49:29;95355.94;;;23.62;76.92
40650;BME280;26342;42.826;23.992;2022-07-06T07:51:54;95358.13;;;23.81;75.56
40650;BME280;26342;42.826;23.992;2022-07-06T07:54:20;95357.44;;;23.96;77.42
40650;BME280;26342;42.826;23.992;2022-07-06T07:56:45;95351.34;;;24.27;75.17
40650;BME280;26342;42.826;23.992;2022-07-06T07:59:11;95349.25;;;24.48;73.30
40650;BME280;26342;42.826;23.992;2022-07-06T08:01:36;95358.66;;;24.35;73.73
40650;BME280;26342;42.826;23.992;2022-07-06T08:04:02;95353.53;;;24.34;74.29
40650;BME280;26342;42.826;23.992;2022-07-06T08:06:27;95360.13;;;24.20;72.96
40650;BME280;26342;42.826;23.992;2022-07-06T08:08:53;95363.19;;;24.19;73.94
40650;BME280;26342;42.826;23.992;2022-07-06T08:11:18;95366.94;;;24.14;72.84
40650;BME280;26342;42.826;23.992;2022-07-06T08:13:44;95362.09;;;23.95;74.48
40650;BME280;26342;42.826;23.992;2022-07-06T08:16:10;95362.19;;;24.11;76.58
40650;BME280;26342;42.826;23.992;2022-07-06T08:18:36;95358.72;;;24.39;75.32
40650;BME280;26342;42.826;23.992;2022-07-06T08:21:02;95358.94;;;24.46;73.98
40650;BME280;26342;42.826;23.992;2022-07-06T08:23:28;95351.91;;;24.45;73.20
40650;BME280;26342;42.826;23.992;2022-07-06T08:25:53;95354.72;;;24.48;74.19
40650;BME280;26342;42.826;23.992;2022-07-06T08:28:19;95364.59;;;24.53;74.75
40650;BME280;26342;42.826;23.992;2022-07-06T08:30:44;95364.91;;;24.64;73.43
40650;BME280;26342;42.826;23.992;2022-07-06T08:33:10;95364.59;;;24.65;72.21
40650;BME280;26342;42.826;23.992;2022-07-06T08:35:35;95362.97;;;24.64;72.29
40650;BME280;26342;42.826;23.992;2022-07-06T08:38:01;95368.09;;;24.66;70.30
40650;BME280;26342;42.826;23.992;2022-07-06T08:40:31;95369.63;;;24.51;72.52
40650;BME280;26342;42.826;23.992;2022-07-06T08:42:59;95359.84;;;24.50;72.88
40650;BME280;26342;42.826;23.992;2022-07-06T08:45:25;95366.56;;;24.40;72.33
40650;BME280;26342;42.826;23.992;2022-07-06T08:47:51;95364.66;;;24.16;73.41
40650;BME280;26342;42.826;23.992;2022-07-06T08:50:19;95367.41;;;24.04;74.40
40650;BME280;26342;42.826;23.992;2022-07-06T08:52:47;95367.38;;;24.16;74.61
40650;BME280;26342;42.826;23.992;2022-07-06T08:55:13;95368.28;;;24.20;74.55
40650;BME280;26342;42.826;23.992;2022-07-06T08:57:39;95372.38;;;24.27;74.17
40650;BME280;26342;42.826;23.992;2022-07-06T09:00:08;95373.63;;;24.29;73.83
40650;BME280;26342;42.826;23.992;2022-07-06T09:02:34;95375.09;;;24.39;72.70
40650;BME280;26342;42.826;23.992;2022-07-06T09:05:02;95375.88;;;24.39;72.73
40650;BME280;26342;42.826;23.992;2022-07-06T09:07:28;95370.28;;;24.48;72.63
40650;BME280;26342;42.826;23.992;2022-07-06T09:09:55;95382.31;;;24.59;72.69
40650;BME280;26342;42.826;23.992;2022-07-06T09:12:21;95374.50;;;24.86;71.34
40650;BME280;26342;42.826;23.992;2022-07-06T09:14:47;95373.53;;;24.94;71.37
40650;BME280;26342;42.826;23.992;2022-07-06T09:17:12;95370.09;;;25.09;71.29
40650;BME280;26342;42.826;23.992;2022-07-06T09:19:38;95374.94;;;25.16;71.06
40650;BME280;26342;42.826;23.992;2022-07-06T09:22:04;95370.75;;;25.50;72.77
40650;BME280;26342;42.826;23.992;2022-07-06T09:24:30;95367.34;;;25.84;69.40
40650;BME280;26342;42.826;23.992;2022-07-06T09:26:57;95358.84;;;25.89;67.87
40650;BME280;26342;42.826;23.992;2022-07-06T09:29:30;95357.50;;;26.15;69.37
40650;BME280;26342;42.826;23.992;2022-07-06T09:31:59;95358.56;;;26.10;65.27
40650;BME280;26342;42.826;23.992;2022-07-06T09:34:40;95354.88;;;26.03;65.85
40650;BME280;26342;42.826;23.992;2022-07-06T09:37:07;95355.78;;;26.26;64.91
40650;BME280;26342;42.826;23.992;2022-07-06T09:39:32;95360.19;;;26.47;67.17
40650;BME280;26342;42.826;23.992;2022-07-06T09:42:00;95356.50;;;26.39;64.91
40650;BME280;26342;42.826;23.992;2022-07-06T09:44:30;95352.72;;;26.63;64.92
40650;BME280;26342;42.826;23.992;2022-07-06T09:47:02;95345.13;;;26.76;64.86
40650;BME280;26342;42.826;23.992;2022-07-06T09:49:28;95345.06;;;26.72;64.22
40650;BME280;26342;42.826;23.992;2022-07-06T09:51:58;95338.66;;;26.64;62.86
40650;BME280;26342;42.826;23.992;2022-07-06T09:54:25;95341.41;;;26.64;63.62
40650;BME280;26342;42.826;23.992;2022-07-06T09:56:51;95331.06;;;26.77;62.40
40650;BME280;26342;42.826;23.992;2022-07-06T09:59:28;95335.63;;;26.89;60.98
40650;BME280;26342;42.826;23.992;2022-07-06T10:01:56;95334.97;;;26.57;61.48
40650;BME280;26342;42.826;23.992;2022-07-06T10:04:23;95338.22;;;26.43;62.48
40650;BME280;26342;42.826;23.992;2022-07-06T10:06:50;95331.19;;;26.26;62.92
40650;BME280;26342;42.826;23.992;2022-07-06T10:09:16;95327.03;;;26.32;62.11
40650;BME280;26342;42.826;23.992;2022-07-06T10:11:51;95339.16;;;26.15;61.29
40650;BME280;26342;42.826;23.992;2022-07-06T10:14:20;95335.34;;;25.85;62.75
40650;BME280;26342;42.826;23.992;2022-07-06T10:16:46;95333.28;;;25.82;63.79
40650;BME280;26342;42.826;23.992;2022-07-06T10:19:13;95331.72;;;25.81;63.80
40650;BME280;26342;42.826;23.992;2022-07-06T10:21:40;95341.47;;;25.66;63.88
40650;BME280;26342;42.826;23.992;2022-07-06T10:24:07;95341.22;;;25.55;64.06
40650;BME280;26342;42.826;23.992;2022-07-06T10:26:34;95336.66;;;25.28;64.43
40650;BME280;26342;42.826;23.992;2022-07-06T10:29:01;95346.66;;;25.08;65.47
40650;BME280;26342;42.826;23.992;2022-07-06T10:31:27;95350.91;;;24.93;65.54
40650;BME280;26342;42.826;23.992;2022-07-06T10:33:55;95341.06;;;24.89;65.69
40650;BME280;26342;42.826;23.992;2022-07-06T10:36:22;95343.41;;;24.74;66.35
40650;BME280;26342;42.826;23.992;2022-07-06T10:38:52;95344.69;;;24.65;67.17
40650;BME280;26342;42.826;23.992;2022-07-06T10:41:18;95356.28;;;24.62;68.88
40650;BME280;26342;42.826;23.992;2022-07-06T10:43:47;95350.19;;;24.53;67.57
40650;BME280;26342;42.826;23.992;2022-07-06T10:46:17;95353.94;;;24.48;67.86
40650;BME280;26342;42.826;23.992;2022-07-06T10:48:45;95350.03;;;24.33;68.97
40650;BME280;26342;42.826;23.992;2022-07-06T10:51:12;95353.75;;;24.29;69.37
40650;BME280;26342;42.826;23.992;2022-07-06T10:53:39;95358.41;;;24.28;69.57
40650;BME280;26342;42.826;23.992;2022-07-06T10:56:07;95352.41;;;24.35;69.55
40650;BME280;26342;42.826;23.992;2022-07-06T10:58:47;95341.84;;;24.33;70.57
40650;BME280;26342;42.826;23.992;2022-07-06T11:01:14;95342.69;;;24.49;70.66
40650;BME280;26342;42.826;23.992;2022-07-06T11:03:45;95338.97;;;24.70;70.02
40650;BME280;26342;42.826;23.992;2022-07-06T11:16:26;95347.66;;;25.47;68.58
40650;BME280;26342;42.826;23.992;2022-07-06T11:21:38;95352.56;;;25.10;69.04
40650;BME280;26342;42.826;23.992;2022-07-06T11:24:05;95346.34;;;24.69;71.15
40650;BME280;26342;42.826;23.992;2022-07-06T11:26:32;95348.28;;;24.29;72.52
40650;BME280;26342;42.826;23.992;2022-07-06T11:28:58;95354.88;;;24.15;73.15
40650;BME280;26342;42.826;23.992;2022-07-06T11:31:25;95350.38;;;24.07;74.13
40650;BME280;26342;42.826;23.992;2022-07-06T11:33:50;95358.19;;;24.09;74.99
40650;BME280;26342;42.826;23.992;2022-07-06T11:36:20;95345.97;;;24.03;74.70
40650;BME280;26342;42.826;23.992;2022-07-06T11:38:48;95357.88;;;23.98;74.33
40650;BME280;26342;42.826;23.992;2022-07-06T11:41:14;95358.44;;;23.91;75.86
40650;BME280;26342;42.826;23.992;2022-07-06T11:43:45;95350.50;;;23.86;75.98
40650;BME280;26342;42.826;23.992;2022-07-06T11:48:47;95347.66;;;23.95;76.06
40650;BME280;26342;42.826;23.992;2022-07-06T11:51:13;95355.59;;;24.00;75.49
40650;BME280;26342;42.826;23.992;2022-07-06T11:53:43;95355.69;;;24.16;75.42
40650;BME280;26342;42.826;23.992;2022-07-06T11:56:09;95347.84;;;24.14;76.28
40650;BME280;26342;42.826;23.992;2022-07-06T11:58:34;95347.63;;;24.19;73.88
40650;BME280;26342;42.826;23.992;2022-07-06T12:01:08;95353.88;;;24.20;74.48
40650;BME280;26342;42.826;23.992;2022-07-06T12:03:35;95341.91;;;24.24;75.60
40650;BME280;26342;42.826;23.992;2022-07-06T12:06:05;95334.78;;;24.32;74.74
40650;BME280;26342;42.826;23.992;2022-07-06T12:08:30;95339.72;;;24.55;73.75
40650;BME280;26342;42.826;23.992;2022-07-06T12:10:56;95341.75;;;24.58;73.85
40650;BME280;26342;42.826;23.992;2022-07-06T12:13:23;95337.41;;;24.57;73.52
40650;BME280;26342;42.826;23.992;2022-07-06T12:15:51;95333.34;;;24.78;71.89
40650;BME280;26342;42.826;23.992;2022-07-06T12:18:17;95321.88;;;25.01;72.02
40650;BME280;26342;42.826;23.992;2022-07-06T12:20:43;95335.75;;;25.24;71.07
40650;BME280;26342;42.826;23.992;2022-07-06T12:23:08;95331.53;;;25.26;69.89
40650;BME280;26342;42.826;23.992;2022-07-06T12:25:35;95327.38;;;25.17;70.80
40650;BME280;26342;42.826;23.992;2022-07-06T12:28:02;95324.13;;;25.27;72.42
40650;BME280;26342;42.826;23.992;2022-07-06T12:30:28;95323.81;;;25.44;71.13
40650;BME280;26342;42.826;23.992;2022-07-06T12:33:15;95324.31;;;25.34;69.00
40650;BME280;26342;42.826;23.992;2022-07-06T12:35:42;95313.75;;;25.32;70.03
40650;BME280;26342;42.826;23.992;2022-07-06T12:38:08;95319.63;;;25.34;71.56
40650;BME280;26342;42.826;23.992;2022-07-06T12:40:35;95312.16;;;25.31;69.76
40650;BME280;26342;42.826;23.992;2022-07-06T12:43:02;95314.00;;;25.27;68.18
40650;BME280;26342;42.826;23.992;2022-07-06T12:45:29;95309.50;;;25.19;69.13
40650;BME280;26342;42.826;23.992;2022-07-06T12:47:58;95312.88;;;25.13;69.76
40650;BME280;26342;42.826;23.992;2022-07-06T12:50:37;95311.97;;;25.09;69.89
40650;BME280;26342;42.826;23.992;2022-07-06T12:53:04;95304.50;;;25.21;68.56
40650;BME280;26342;42.826;23.992;2022-07-06T12:55:30;95302.75;;;25.45;69.49
40650;BME280;26342;42.826;23.992;2022-07-06T12:57:57;95274.78;;;25.51;66.74
40650;BME280;26342;42.826;23.992;2022-07-06T13:00:23;95287.13;;;25.61;67.38
40650;BME280;26342;42.826;23.992;2022-07-06T13:02:51;95286.50;;;25.83;65.81